sensor_id;sensor_type;location;lat;lon;timestamp;pressure;altitude;pressure_sealevel;temperature;humidity
58879;BME280;44660;42.664;23.266;2023-08-31T00:02:22;94003.53;;;20.54;52.49
58879;BME280;44660;42.664;23.266;2023-08-31T00:04:51;94028.44;;;20.69;52.67
58879;BME280;44660;42.664;23.266;2023-08-31T00:07:17;94025.72;;;20.69;52.11
58879;BME280;44660;42.664;23.266;2023-08-31T00:09:43;94009.22;;;20.62;50.96
58879;BME280;44660;42.664;23.266;2023-08-31T00:12:08;94031.13;;;20.69;51.53
58879;BME280;44660;42.664;23.266;2023-08-31T00:14:33;94029.53;;;20.68;51.86
58879;BME280;44660;42.664;23.266;2023-08-31T00:16:59;94030.34;;;20.68;51.98
58879;BME280;44660;42.664;23.266;2023-08-31T00:19:25;94021.75;;;20.66;52.07
58879;BME280;44660;42.664;23.266;2023-08-31T00:21:50;94015.25;;;20.59;51.29
58879;BME280;44660;42.664;23.266;2023-08-31T00:24:16;94016.03;;;20.59;50.88
58879;BME280;44660;42.664;23.266;2023-08-31T00:26:41;94010.66;;;20.50;51.19
58879;BME280;44660;42.664;23.266;2023-08-31T00:29:10;94021.94;;;20.52;52.78
58879;BME280;44660;42.664;23.266;2023-08-31T00:31:37;94029.22;;;20.61;51.98
58879;BME280;44660;42.664;23.266;2023-08-31T00:34:03;94028.59;;;20.55;53.66
58879;BME280;44660;42.664;23.266;2023-08-31T00:36:30;94035.28;;;20.66;53.50
58879;BME280;44660;42.664;23.266;2023-08-31T00:38:56;94013.66;;;20.58;51.06
58879;BME280;44660;42.664;23.266;2023-08-31T00:41:22;94029.22;;;20.61;50.57
58879;BME280;44660;42.664;23.266;2023-08-31T00:43:48;94044.16;;;20.67;51.13
58879;BME280;44660;42.664;23.266;2023-08-31T00:46:13;94041.66;;;20.70;50.51
58879;BME280;44660;42.664;23.266;2023-08-31T00:48:40;93978.72;;;20.35;51.45
58879;BME280;44660;42.664;23.266;2023-08-31T00:51:06;94023.03;;;20.60;51.68
58879;BME280;44660;42.664;23.266;2023-08-31T00:53:32;94030.81;;;20.62;51.31
58879;BME280;44660;42.664;23.266;2023-08-31T00:55:59;94046.44;;;20.74;53.80
58879;BME280;44660;42.664;23.266;2023-08-31T00:58:24;94047.38;;;20.78;53.67
58879;BME280;44660;42.664;23.266;2023-08-31T01:01:11;94046.25;;;20.79;52.18
58879;BME280;44660;42.664;23.266;2023-08-31T01:07:09;94054.97;;;20.84;52.84
58879;BME280;44660;42.664;23.266;2023-08-31T01:12:40;94052.75;;;20.86;51.96
58879;BME280;44660;42.664;23.266;2023-08-31T01:15:13;94043.22;;;20.80;50.89
58879;BME280;44660;42.664;23.266;2023-08-31T01:17:44;94049.56;;;20.84;50.52
58879;BME280;44660;42.664;23.266;2023-08-31T01:20:14;94051.81;;;20.82;50.75
58879;BME280;44660;42.664;23.266;2023-08-31T01:22:51;94045.94;;;20.71;51.16
58879;BME280;44660;42.664;23.266;2023-08-31T01:25:20;94027.00;;;20.63;50.76
58879;BME280;44660;42.664;23.266;2023-08-31T01:27:46;94051.00;;;20.73;51.96
58879;BME280;44660;42.664;23.266;2023-08-31T01:30:12;94049.13;;;20.74;51.26
58879;BME280;44660;42.664;23.266;2023-08-31T01:32:43;94051.50;;;20.75;51.44
58879;BME280;44660;42.664;23.266;2023-08-31T01:35:11;94046.88;;;20.76;51.65
58879;BME280;44660;42.664;23.266;2023-08-31T01:38:01;94053.09;;;20.76;51.65
58879;BME280;44660;42.664;23.266;2023-08-31T01:41:06;93943.50;;;20.05;50.69
58879;BME280;44660;42.664;23.266;2023-08-31T01:43:33;93995.75;;;20.35;51.04
58879;BME280;44660;42.664;23.266;2023-08-31T01:46:00;94029.25;;;20.52;51.35
58879;BME280;44660;42.664;23.266;2023-08-31T01:48:26;94047.34;;;20.51;51.61
58879;BME280;44660;42.664;23.266;2023-08-31T01:50:52;94044.78;;;20.46;52.11
58879;BME280;44660;42.664;23.266;2023-08-31T01:53:18;94008.75;;;20.25;52.34
58879;BME280;44660;42.664;23.266;2023-08-31T01:55:43;94055.28;;;20.56;51.55
58879;BME280;44660;42.664;23.266;2023-08-31T01:58:08;94061.78;;;20.55;52.39
58879;BME280;44660;42.664;23.266;2023-08-31T02:00:34;94044.63;;;20.51;52.92
58879;BME280;44660;42.664;23.266;2023-08-31T02:03:01;94055.13;;;20.53;51.73
58879;BME280;44660;42.664;23.266;2023-08-31T02:05:26;94057.03;;;20.52;51.95
58879;BME280;44660;42.664;23.266;2023-08-31T02:07:52;94061.78;;;20.55;52.01
58879;BME280;44660;42.664;23.266;2023-08-31T02:10:18;94055.91;;;20.45;52.08
58879;BME280;44660;42.664;23.266;2023-08-31T02:12:43;94081.34;;;20.52;52.37
58879;BME280;44660;42.664;23.266;2023-08-31T02:15:09;94072.59;;;20.47;52.59
58879;BME280;44660;42.664;23.266;2023-08-31T02:17:35;94061.63;;;20.34;52.32
58879;BME280;44660;42.664;23.266;2023-08-31T02:20:00;94079.41;;;20.44;51.92
58879;BME280;44660;42.664;23.266;2023-08-31T02:22:30;94071.16;;;20.32;52.59
58879;BME280;44660;42.664;23.266;2023-08-31T02:24:56;94072.09;;;20.36;52.90
58879;BME280;44660;42.664;23.266;2023-08-31T02:27:22;94063.81;;;20.23;51.87
58879;BME280;44660;42.664;23.266;2023-08-31T02:29:47;94051.28;;;20.19;52.54
58879;BME280;44660;42.664;23.266;2023-08-31T02:32:12;94067.97;;;20.30;52.31
58879;BME280;44660;42.664;23.266;2023-08-31T02:34:38;94017.25;;;19.92;51.74
58879;BME280;44660;42.664;23.266;2023-08-31T02:37:03;94065.06;;;20.17;51.93
58879;BME280;44660;42.664;23.266;2023-08-31T02:39:29;94068.25;;;20.11;52.11
58879;BME280;44660;42.664;23.266;2023-08-31T02:41:55;94066.81;;;20.04;52.07
58879;BME280;44660;42.664;23.266;2023-08-31T02:44:21;94069.66;;;19.99;52.51
58879;BME280;44660;42.664;23.266;2023-08-31T02:46:46;94071.41;;;19.95;53.53
58879;BME280;44660;42.664;23.266;2023-08-31T02:49:11;94072.31;;;19.90;52.45
58879;BME280;44660;42.664;23.266;2023-08-31T02:51:37;94064.69;;;19.84;53.69
58879;BME280;44660;42.664;23.266;2023-08-31T02:54:03;94069.94;;;19.89;52.86
58879;BME280;44660;42.664;23.266;2023-08-31T02:56:29;94079.47;;;19.95;52.87
58879;BME280;44660;42.664;23.266;2023-08-31T02:58:55;94092.97;;;19.95;53.13
58879;BME280;44660;42.664;23.266;2023-08-31T03:01:21;94072.88;;;19.70;52.46
58879;BME280;44660;42.664;23.266;2023-08-31T03:03:48;94088.75;;;19.80;53.00
58879;BME280;44660;42.664;23.266;2023-08-31T03:06:14;94100.06;;;19.82;52.83
58879;BME280;44660;42.664;23.266;2023-08-31T03:08:40;94104.63;;;19.82;53.45
58879;BME280;44660;42.664;23.266;2023-08-31T03:11:06;94097.50;;;19.77;53.52
58879;BME280;44660;42.664;23.266;2023-08-31T03:13:32;94095.53;;;19.69;53.11
58879;BME280;44660;42.664;23.266;2023-08-31T03:15:59;94097.13;;;19.70;53.58
58879;BME280;44660;42.664;23.266;2023-08-31T03:18:25;94101.25;;;19.67;53.59
58879;BME280;44660;42.664;23.266;2023-08-31T03:20:50;94099.97;;;19.65;53.84
58879;BME280;44660;42.664;23.266;2023-08-31T03:23:16;94077.72;;;19.50;54.15
58879;BME280;44660;42.664;23.266;2023-08-31T03:25:42;94102.81;;;19.60;54.17
58879;BME280;44660;42.664;23.266;2023-08-31T03:28:07;94100.88;;;19.60;54.91
58879;BME280;44660;42.664;23.266;2023-08-31T03:30:33;94095.19;;;19.62;54.74
58879;BME280;44660;42.664;23.266;2023-08-31T03:32:59;94091.53;;;19.57;54.49
58879;BME280;44660;42.664;23.266;2023-08-31T03:35:24;94101.19;;;19.58;54.70
58879;BME280;44660;42.664;23.266;2023-08-31T03:37:55;94101.97;;;19.50;53.88
58879;BME280;44660;42.664;23.266;2023-08-31T03:40:21;94091.09;;;19.33;54.44
58879;BME280;44660;42.664;23.266;2023-08-31T03:42:48;94110.16;;;19.45;54.13
58879;BME280;44660;42.664;23.266;2023-08-31T03:45:13;94102.84;;;19.37;54.24
58879;BME280;44660;42.664;23.266;2023-08-31T03:47:39;94105.34;;;19.33;55.23
58879;BME280;44660;42.664;23.266;2023-08-31T03:50:05;94112.66;;;19.33;55.33
58879;BME280;44660;42.664;23.266;2023-08-31T03:52:30;94117.41;;;19.36;54.32
58879;BME280;44660;42.664;23.266;2023-08-31T03:54:56;94124.03;;;19.30;54.50
58879;BME280;44660;42.664;23.266;2023-08-31T03:57:21;94102.72;;;19.19;54.65
58879;BME280;44660;42.664;23.266;2023-08-31T03:59:47;94112.53;;;19.15;55.09
58879;BME280;44660;42.664;23.266;2023-08-31T04:02:12;94112.03;;;19.13;55.18
58879;BME280;44660;42.664;23.266;2023-08-31T04:04:38;94136.84;;;19.24;54.52
58879;BME280;44660;42.664;23.266;2023-08-31T04:07:04;94145.25;;;19.22;55.06
58879;BME280;44660;42.664;23.266;2023-08-31T04:09:30;94152.41;;;19.27;55.42
58879;BME280;44660;42.664;23.266;2023-08-31T04:11:55;94157.97;;;19.31;55.15
58879;BME280;44660;42.664;23.266;2023-08-31T04:14:21;94156.38;;;19.30;55.88
58879;BME280;44660;42.664;23.266;2023-08-31T04:16:46;94161.16;;;19.33;55.98
58879;BME280;44660;42.664;23.266;2023-08-31T04:19:15;94163.72;;;19.38;55.84
58879;BME280;44660;42.664;23.266;2023-08-31T04:21:41;94154.00;;;19.28;55.42
58879;BME280;44660;42.664;23.266;2023-08-31T04:24:07;94170.84;;;19.34;55.39
58879;BME280;44660;42.664;23.266;2023-08-31T04:26:32;94143.41;;;19.09;55.17
58879;BME280;44660;42.664;23.266;2023-08-31T04:28:58;94164.09;;;19.22;54.57
58879;BME280;44660;42.664;23.266;2023-08-31T04:31:23;94184.91;;;19.31;55.28
58879;BME280;44660;42.664;23.266;2023-08-31T04:33:49;94180.03;;;19.33;55.71
58879;BME280;44660;42.664;23.266;2023-08-31T04:36:19;94168.56;;;19.27;54.93
58879;BME280;44660;42.664;23.266;2023-08-31T04:38:45;94181.72;;;19.29;54.78
58879;BME280;44660;42.664;23.266;2023-08-31T04:41:10;94186.63;;;19.27;55.24
58879;BME280;44660;42.664;23.266;2023-08-31T04:43:36;94188.38;;;19.22;55.13
58879;BME280;44660;42.664;23.266;2023-08-31T04:46:01;94176.09;;;19.16;55.35
58879;BME280;44660;42.664;23.266;2023-08-31T04:48:29;94191.53;;;19.24;55.52
58879;BME280;44660;42.664;23.266;2023-08-31T04:50:56;94202.94;;;19.21;55.27
58879;BME280;44660;42.664;23.266;2023-08-31T04:53:22;94198.94;;;19.19;55.47
58879;BME280;44660;42.664;23.266;2023-08-31T04:55:48;94189.16;;;19.23;55.86
58879;BME280;44660;42.664;23.266;2023-08-31T04:58:13;94168.63;;;19.13;55.99
58879;BME280;44660;42.664;23.266;2023-08-31T05:00:38;94199.50;;;19.30;56.04
58879;BME280;44660;42.664;23.266;2023-08-31T05:03:04;94197.09;;;19.28;55.98
58879;BME280;44660;42.664;23.266;2023-08-31T05:05:30;94197.91;;;19.29;56.41
58879;BME280;44660;42.664;23.266;2023-08-31T05:07:55;94199.09;;;19.36;56.96
58879;BME280;44660;42.664;23.266;2023-08-31T05:10:21;94196.94;;;19.47;56.58
58879;BME280;44660;42.664;23.266;2023-08-31T05:12:46;94188.84;;;19.47;55.27
58879;BME280;44660;42.664;23.266;2023-08-31T05:15:12;94204.16;;;19.61;56.31
58879;BME280;44660;42.664;23.266;2023-08-31T05:17:37;94212.31;;;19.69;55.45
58879;BME280;44660;42.664;23.266;2023-08-31T05:20:03;94217.25;;;19.76;55.40
58879;BME280;44660;42.664;23.266;2023-08-31T05:22:29;94212.13;;;19.88;55.76
58879;BME280;44660;42.664;23.266;2023-08-31T05:24:55;94191.25;;;19.80;56.38
58879;BME280;44660;42.664;23.266;2023-08-31T05:27:21;94194.06;;;19.98;57.10
58879;BME280;44660;42.664;23.266;2023-08-31T05:29:46;94184.72;;;20.04;55.75
58879;BME280;44660;42.664;23.266;2023-08-31T05:32:12;94200.50;;;20.19;54.56
58879;BME280;44660;42.664;23.266;2023-08-31T05:34:37;94182.88;;;20.22;55.57
58879;BME280;44660;42.664;23.266;2023-08-31T05:37:05;94178.00;;;20.24;53.51
58879;BME280;44660;42.664;23.266;2023-08-31T05:39:31;94197.09;;;20.45;52.10
58879;BME280;44660;42.664;23.266;2023-08-31T05:41:57;94207.13;;;20.53;53.75
58879;BME280;44660;42.664;23.266;2023-08-31T05:44:22;94198.25;;;20.62;51.74
58879;BME280;44660;42.664;23.266;2023-08-31T05:46:48;94191.59;;;20.68;50.74
58879;BME280;44660;42.664;23.266;2023-08-31T05:49:13;94188.31;;;20.71;50.59
58879;BME280;44660;42.664;23.266;2023-08-31T05:51:39;94173.47;;;20.60;50.38
58879;BME280;44660;42.664;23.266;2023-08-31T05:54:05;94194.50;;;20.80;50.34
58879;BME280;44660;42.664;23.266;2023-08-31T05:56:31;94198.16;;;20.84;50.56
58879;BME280;44660;42.664;23.266;2023-08-31T05:58:56;94179.22;;;20.76;49.76
58879;BME280;44660;42.664;23.266;2023-08-31T06:01:22;94195.16;;;20.95;50.36
58879;BME280;44660;42.664;23.266;2023-08-31T06:03:48;94197.41;;;21.01;51.33
58879;BME280;44660;42.664;23.266;2023-08-31T06:06:14;94196.09;;;21.08;48.81
58879;BME280;44660;42.664;23.266;2023-08-31T06:08:39;94182.28;;;21.00;49.32
58879;BME280;44660;42.664;23.266;2023-08-31T06:11:08;94213.75;;;21.23;48.45
58879;BME280;44660;42.664;23.266;2023-08-31T06:13:33;94201.34;;;21.30;49.79
58879;BME280;44660;42.664;23.266;2023-08-31T06:15:59;94207.56;;;21.40;49.58
58879;BME280;44660;42.664;23.266;2023-08-31T06:18:25;94209.78;;;21.46;50.20
58879;BME280;44660;42.664;23.266;2023-08-31T06:20:51;94156.38;;;21.26;50.21
58879;BME280;44660;42.664;23.266;2023-08-31T06:23:17;94201.69;;;21.64;49.36
58879;BME280;44660;42.664;23.266;2023-08-31T06:25:42;94206.25;;;21.72;49.62
58879;BME280;44660;42.664;23.266;2023-08-31T06:28:08;94224.69;;;21.88;49.07
58879;BME280;44660;42.664;23.266;2023-08-31T06:30:36;94203.69;;;21.84;47.86
58879;BME280;44660;42.664;23.266;2023-08-31T06:33:02;94206.88;;;21.87;47.31
58879;BME280;44660;42.664;23.266;2023-08-31T06:35:28;94227.19;;;22.10;46.85
58879;BME280;44660;42.664;23.266;2023-08-31T06:37:53;94224.94;;;22.12;46.89
58879;BME280;44660;42.664;23.266;2023-08-31T06:40:21;94231.75;;;22.27;46.61
58879;BME280;44660;42.664;23.266;2023-08-31T06:42:47;94212.16;;;22.22;46.54
58879;BME280;44660;42.664;23.266;2023-08-31T06:45:12;94235.03;;;22.50;46.51
58879;BME280;44660;42.664;23.266;2023-08-31T06:47:38;94238.47;;;22.60;46.41
58879;BME280;44660;42.664;23.266;2023-08-31T06:50:04;94225.41;;;22.62;45.98
58879;BME280;44660;42.664;23.266;2023-08-31T06:52:30;94237.75;;;22.80;46.06
58879;BME280;44660;42.664;23.266;2023-08-31T06:54:55;94239.41;;;22.94;45.25
58879;BME280;44660;42.664;23.266;2023-08-31T06:57:25;94231.03;;;23.08;44.68
58879;BME280;44660;42.664;23.266;2023-08-31T06:59:52;94238.75;;;23.27;44.55
58879;BME280;44660;42.664;23.266;2023-08-31T07:02:17;94220.47;;;23.36;44.19
58879;BME280;44660;42.664;23.266;2023-08-31T07:04:44;94241.75;;;23.68;44.27
58879;BME280;44660;42.664;23.266;2023-08-31T07:07:11;94225.09;;;23.90;42.59
58879;BME280;44660;42.664;23.266;2023-08-31T07:09:39;94244.56;;;24.26;42.78
58879;BME280;44660;42.664;23.266;2023-08-31T07:12:05;94222.28;;;24.82;40.45
58879;BME280;44660;42.664;23.266;2023-08-31T07:14:31;94234.81;;;26.69;37.88
58879;BME280;44660;42.664;23.266;2023-08-31T07:16:57;94227.06;;;28.41;34.59
58879;BME280;44660;42.664;23.266;2023-08-31T07:19:23;94241.19;;;29.77;32.64
58879;BME280;44660;42.664;23.266;2023-08-31T07:21:48;94235.75;;;31.04;30.30
58879;BME280;44660;42.664;23.266;2023-08-31T07:24:13;94233.50;;;31.84;27.30
58879;BME280;44660;42.664;23.266;2023-08-31T07:26:39;94230.13;;;32.41;26.00
58879;BME280;44660;42.664;23.266;2023-08-31T07:29:04;94238.03;;;32.93;24.92
58879;BME280;44660;42.664;23.266;2023-08-31T07:31:30;94230.06;;;33.60;24.26
58879;BME280;44660;42.664;23.266;2023-08-31T07:33:57;94237.31;;;34.14;23.96
58879;BME280;44660;42.664;23.266;2023-08-31T07:36:22;94224.88;;;34.55;23.35
58879;BME280;44660;42.664;23.266;2023-08-31T07:38:48;94237.69;;;35.28;22.86
58879;BME280;44660;42.664;23.266;2023-08-31T07:41:14;94235.13;;;35.87;21.69
58879;BME280;44660;42.664;23.266;2023-08-31T07:43:39;94239.22;;;35.71;21.18
58879;BME280;44660;42.664;23.266;2023-08-31T07:46:05;94242.53;;;35.93;21.14
58879;BME280;44660;42.664;23.266;2023-08-31T07:48:30;94232.09;;;36.08;21.37
58879;BME280;44660;42.664;23.266;2023-08-31T07:50:56;94233.91;;;36.50;20.99
58879;BME280;44660;42.664;23.266;2023-08-31T07:53:22;94234.88;;;36.39;21.05
58879;BME280;44660;42.664;23.266;2023-08-31T07:55:54;94242.69;;;36.13;21.69
58879;BME280;44660;42.664;23.266;2023-08-31T07:58:22;94238.78;;;35.76;21.51
58879;BME280;44660;42.664;23.266;2023-08-31T08:00:48;94230.41;;;35.87;21.47
58879;BME280;44660;42.664;23.266;2023-08-31T08:03:13;94223.47;;;34.88;22.28
58879;BME280;44660;42.664;23.266;2023-08-31T08:05:39;94236.72;;;35.04;22.31
58879;BME280;44660;42.664;23.266;2023-08-31T08:08:06;94227.59;;;35.11;22.25
58879;BME280;44660;42.664;23.266;2023-08-31T08:10:32;94222.59;;;34.42;21.83
58879;BME280;44660;42.664;23.266;2023-08-31T08:12:58;94214.72;;;34.44;22.05
58879;BME280;44660;42.664;23.266;2023-08-31T08:15:24;94207.56;;;34.50;22.17
58879;BME280;44660;42.664;23.266;2023-08-31T08:17:49;94227.00;;;34.89;21.67
58879;BME280;44660;42.664;23.266;2023-08-31T08:20:18;94244.53;;;35.13;21.29
58879;BME280;44660;42.664;23.266;2023-08-31T08:22:47;94211.63;;;34.28;20.85
58879;BME280;44660;42.664;23.266;2023-08-31T08:25:14;94254.19;;;34.34;22.30
58879;BME280;44660;42.664;23.266;2023-08-31T08:27:40;94250.22;;;34.39;22.08
58879;BME280;44660;42.664;23.266;2023-08-31T08:30:06;94213.22;;;34.25;22.63
58879;BME280;44660;42.664;23.266;2023-08-31T08:32:33;94248.34;;;34.81;21.74
58879;BME280;44660;42.664;23.266;2023-08-31T08:34:58;94217.56;;;34.82;21.70
58879;BME280;44660;42.664;23.266;2023-08-31T08:37:24;94234.28;;;35.13;20.96
58879;BME280;44660;42.664;23.266;2023-08-31T08:39:50;94244.78;;;35.29;20.75
58879;BME280;44660;42.664;23.266;2023-08-31T08:42:18;94238.56;;;35.18;20.68
58879;BME280;44660;42.664;23.266;2023-08-31T08:44:44;94210.38;;;34.99;21.00
58879;BME280;44660;42.664;23.266;2023-08-31T08:47:11;94239.59;;;34.93;20.58
58879;BME280;44660;42.664;23.266;2023-08-31T08:49:37;94223.41;;;34.92;20.86
58879;BME280;44660;42.664;23.266;2023-08-31T08:52:04;94242.41;;;35.31;20.22
58879;BME280;44660;42.664;23.266;2023-08-31T08:54:29;94205.63;;;35.00;20.16
58879;BME280;44660;42.664;23.266;2023-08-31T08:56:56;94235.59;;;35.43;20.10
58879;BME280;44660;42.664;23.266;2023-08-31T08:59:22;94228.94;;;35.34;19.43
58879;BME280;44660;42.664;23.266;2023-08-31T09:01:48;94215.25;;;35.23;19.78
58879;BME280;44660;42.664;23.266;2023-08-31T09:04:13;94233.41;;;35.24;19.53
58879;BME280;44660;42.664;23.266;2023-08-31T09:06:40;94225.00;;;35.38;19.90
58879;BME280;44660;42.664;23.266;2023-08-31T09:09:07;94228.56;;;35.35;20.49
58879;BME280;44660;42.664;23.266;2023-08-31T09:11:33;94234.28;;;35.13;20.29
58879;BME280;44660;42.664;23.266;2023-08-31T09:13:59;94235.47;;;35.12;20.58
58879;BME280;44660;42.664;23.266;2023-08-31T09:16:26;94197.59;;;34.64;20.79
58879;BME280;44660;42.664;23.266;2023-08-31T09:18:53;94236.19;;;34.71;21.27
58879;BME280;44660;42.664;23.266;2023-08-31T09:21:19;94239.47;;;34.55;20.75
58879;BME280;44660;42.664;23.266;2023-08-31T09:23:58;94245.00;;;34.52;20.53
58879;BME280;44660;42.664;23.266;2023-08-31T09:26:23;94230.94;;;34.35;21.11
58879;BME280;44660;42.664;23.266;2023-08-31T09:28:49;94228.94;;;34.32;21.32
58879;BME280;44660;42.664;23.266;2023-08-31T09:31:15;94237.63;;;34.27;21.49
58879;BME280;44660;42.664;23.266;2023-08-31T09:33:49;94240.81;;;34.22;21.10
58879;BME280;44660;42.664;23.266;2023-08-31T09:36:16;94231.78;;;34.17;21.12
58879;BME280;44660;42.664;23.266;2023-08-31T09:38:42;94241.97;;;34.28;20.36
58879;BME280;44660;42.664;23.266;2023-08-31T09:41:11;94242.34;;;34.37;21.00
58879;BME280;44660;42.664;23.266;2023-08-31T09:43:39;94225.03;;;34.26;21.42
58879;BME280;44660;42.664;23.266;2023-08-31T09:46:04;94227.00;;;34.29;21.74
58879;BME280;44660;42.664;23.266;2023-08-31T09:48:30;94224.28;;;34.18;20.90
58879;BME280;44660;42.664;23.266;2023-08-31T09:50:56;94236.25;;;33.90;21.23
58879;BME280;44660;42.664;23.266;2023-08-31T09:53:25;94226.13;;;33.58;20.82
58879;BME280;44660;42.664;23.266;2023-08-31T09:55:54;94239.91;;;33.61;20.63
58879;BME280;44660;42.664;23.266;2023-08-31T09:58:21;94232.47;;;33.40;20.60
58879;BME280;44660;42.664;23.266;2023-08-31T10:00:48;94234.03;;;33.45;20.82
58879;BME280;44660;42.664;23.266;2023-08-31T10:03:14;94203.38;;;33.21;20.97
58879;BME280;44660;42.664;23.266;2023-08-31T10:05:44;94235.63;;;33.42;20.85
58879;BME280;44660;42.664;23.266;2023-08-31T10:08:14;94227.72;;;33.51;20.93
58879;BME280;44660;42.664;23.266;2023-08-31T10:10:40;94197.47;;;33.15;20.66
58879;BME280;44660;42.664;23.266;2023-08-31T10:13:05;94219.88;;;33.32;20.91
58879;BME280;44660;42.664;23.266;2023-08-31T10:15:32;94225.81;;;33.12;20.27
58879;BME280;44660;42.664;23.266;2023-08-31T10:17:59;94211.69;;;32.81;20.83
58879;BME280;44660;42.664;23.266;2023-08-31T10:20:26;94212.47;;;32.85;20.73
58879;BME280;44660;42.664;23.266;2023-08-31T10:22:54;94200.69;;;32.60;21.13
58879;BME280;44660;42.664;23.266;2023-08-31T10:25:21;94203.03;;;32.76;21.63
58879;BME280;44660;42.664;23.266;2023-08-31T10:27:47;94223.88;;;33.02;21.40
58879;BME280;44660;42.664;23.266;2023-08-31T10:35:49;94234.06;;;33.16;20.99
58879;BME280;44660;42.664;23.266;2023-08-31T10:38:31;94231.34;;;32.91;21.28
58879;BME280;44660;42.664;23.266;2023-08-31T10:43:45;94239.16;;;32.67;21.43
58879;BME280;44660;42.664;23.266;2023-08-31T10:46:18;94245.03;;;32.33;21.29
58879;BME280;44660;42.664;23.266;2023-08-31T10:48:53;94237.06;;;32.06;21.81
58879;BME280;44660;42.664;23.266;2023-08-31T10:51:27;94204.06;;;31.91;22.65
58879;BME280;44660;42.664;23.266;2023-08-31T10:54:04;94231.97;;;31.94;22.07
58879;BME280;44660;42.664;23.266;2023-08-31T10:56:30;94237.84;;;31.88;21.92
58879;BME280;44660;42.664;23.266;2023-08-31T10:59:00;94237.81;;;31.92;22.45
58879;BME280;44660;42.664;23.266;2023-08-31T11:02:01;94237.41;;;31.86;23.47
58879;BME280;44660;42.664;23.266;2023-08-31T11:04:29;94247.63;;;31.89;23.71
58879;BME280;44660;42.664;23.266;2023-08-31T11:07:23;94225.25;;;31.87;24.31
58879;BME280;44660;42.664;23.266;2023-08-31T11:09:48;94248.09;;;32.13;24.23
58879;BME280;44660;42.664;23.266;2023-08-31T11:12:14;94253.59;;;32.13;24.22
58879;BME280;44660;42.664;23.266;2023-08-31T11:14:40;94253.19;;;32.11;23.57
58879;BME280;44660;42.664;23.266;2023-08-31T11:17:06;94239.78;;;31.91;23.59
58879;BME280;44660;42.664;23.266;2023-08-31T11:19:33;94244.03;;;31.78;24.24
58879;BME280;44660;42.664;23.266;2023-08-31T11:22:01;94247.16;;;31.73;23.78
58879;BME280;44660;42.664;23.266;2023-08-31T11:24:31;94247.16;;;31.73;24.25
58879;BME280;44660;42.664;23.266;2023-08-31T11:26:57;94249.50;;;31.67;23.76
58879;BME280;44660;42.664;23.266;2023-08-31T11:29:23;94224.28;;;31.47;23.67
58879;BME280;44660;42.664;23.266;2023-08-31T11:31:48;94247.03;;;31.51;23.77
58879;BME280;44660;42.664;23.266;2023-08-31T11:34:15;94241.47;;;31.37;23.51
58879;BME280;44660;42.664;23.266;2023-08-31T11:36:42;94235.13;;;31.22;24.02
58879;BME280;44660;42.664;23.266;2023-08-31T11:39:09;94246.13;;;31.25;24.06
58879;BME280;44660;42.664;23.266;2023-08-31T11:41:35;94234.19;;;31.00;24.52
58879;BME280;44660;42.664;23.266;2023-08-31T11:44:03;94227.75;;;30.81;25.82
58879;BME280;44660;42.664;23.266;2023-08-31T11:46:30;94241.94;;;30.90;26.73
58879;BME280;44660;42.664;23.266;2023-08-31T11:48:58;94252.06;;;30.83;26.94
58879;BME280;44660;42.664;23.266;2023-08-31T11:51:24;94247.00;;;30.85;26.63
58879;BME280;44660;42.664;23.266;2023-08-31T11:53:50;94218.19;;;30.60;26.83
58879;BME280;44660;42.664;23.266;2023-08-31T11:56:15;94234.69;;;30.68;27.25
58879;BME280;44660;42.664;23.266;2023-08-31T11:58:41;94232.25;;;30.55;27.40
58879;BME280;44660;42.664;23.266;2023-08-31T12:01:17;94246.69;;;30.49;27.24
58879;BME280;44660;42.664;23.266;2023-08-31T12:03:45;94245.50;;;30.50;27.72
58879;BME280;44660;42.664;23.266;2023-08-31T12:06:10;94233.28;;;30.40;27.23
58879;BME280;44660;42.664;23.266;2023-08-31T12:08:37;94242.97;;;30.30;27.75
58879;BME280;44660;42.664;23.266;2023-08-31T12:11:05;94232.66;;;30.16;28.16
58879;BME280;44660;42.664;23.266;2023-08-31T12:13:31;94242.38;;;30.10;27.95
58879;BME280;44660;42.664;23.266;2023-08-31T12:15:57;94233.66;;;30.01;28.25
58879;BME280;44660;42.664;23.266;2023-08-31T12:18:23;94238.34;;;30.00;27.94
58879;BME280;44660;42.664;23.266;2023-08-31T12:20:53;94236.31;;;29.93;28.24
58879;BME280;44660;42.664;23.266;2023-08-31T12:23:19;94226.59;;;30.00;28.05
58879;BME280;44660;42.664;23.266;2023-08-31T12:25:47;94220.69;;;29.97;27.78
58879;BME280;44660;42.664;23.266;2023-08-31T12:28:13;94226.94;;;29.94;28.20
58879;BME280;44660;42.664;23.266;2023-08-31T12:30:42;94232.41;;;29.94;28.04
58879;BME280;44660;42.664;23.266;2023-08-31T12:33:09;94213.31;;;29.68;27.59
58879;BME280;44660;42.664;23.266;2023-08-31T12:35:35;94240.75;;;29.75;28.10
58879;BME280;44660;42.664;23.266;2023-08-31T12:38:01;94222.50;;;29.52;28.46
58879;BME280;44660;42.664;23.266;2023-08-31T12:40:27;94214.97;;;29.45;28.69
58879;BME280;44660;42.664;23.266;2023-08-31T12:42:53;94234.66;;;29.55;28.27
58879;BME280;44660;42.664;23.266;2023-08-31T12:45:18;94211.03;;;29.43;29.03
58879;BME280;44660;42.664;23.266;2023-08-31T12:47:44;94216.94;;;29.45;28.42
58879;BME280;44660;42.664;23.266;2023-08-31T12:50:09;94226.06;;;29.56;28.26
58879;BME280;44660;42.664;23.266;2023-08-31T12:52:35;94228.81;;;29.56;28.60
58879;BME280;44660;42.664;23.266;2023-08-31T12:55:01;94204.69;;;29.35;28.16
58879;BME280;44660;42.664;23.266;2023-08-31T12:57:26;94188.00;;;29.17;28.34
58879;BME280;44660;42.664;23.266;2023-08-31T12:59:52;94183.59;;;29.09;28.05
58879;BME280;44660;42.664;23.266;2023-08-31T13:02:18;94224.63;;;29.36;27.80
58879;BME280;44660;42.664;23.266;2023-08-31T13:04:45;94231.28;;;29.35;28.03